EDLI 110349Z 13005KT 9999 ///024 08/08 Q1006

Wind aktuell: 130° mit 4 kt

Wind 10 Minuten extrem:

120° bis 150° mit 3 kt bis 6 kt

Seitenwindkomponente: 1.6 kt

Wolkengrenze 1: 2400

Wolkengrenze 2: keine

Wolkengrenze 3: keine

Sichtweite: 20.000 Meter

Vorheriges Wetter:

Aktuelles Wetter:

Temperatur: 8.5 °C

Taupunkt: 8.4 °C

Luftfeuchtigkeit: 99%

QNH: 1006 hPa 

QFE: 989 hPa

Diese Daten werden automatisch ermittelt bzw. übertragen und sind nicht geprüft. Für die Richtigkeit wird daher keine Gewähr übernommen. Sie ersetzen im übrigen nicht die Flugwetterberatung. Alle Zeitangaben beziehen sich auf UTC. Die Seite wird einmal die Minute aktualisiert! Sollten Sie ein ältere Seite haben, so drücken Sie bitte auf den Reload Button Ihres Browsers!